createdAt,value
2018-11-01T00:00:43.791Z,21.57
2018-11-01T00:03:14.866Z,21.07
2018-11-01T00:05:45.816Z,22.80
2018-11-01T00:08:17.923Z,21.30
2018-11-01T00:10:49.193Z,21.97
2018-11-01T00:13:20.451Z,20.07
2018-11-01T00:15:51.788Z,20.80
2018-11-01T00:18:22.960Z,20.77
2018-11-01T00:20:53.954Z,18.47
2018-11-01T00:23:25.206Z,20.80
2018-11-01T00:25:56.287Z,17.70
2018-11-01T00:28:27.364Z,22.23
2018-11-01T00:30:58.563Z,22.17
2018-11-01T00:33:29.718Z,20.30
2018-11-01T00:36:00.918Z,20.10
2018-11-01T00:38:32.680Z,20.33
2018-11-01T00:41:03.745Z,24.20
2018-11-01T00:43:34.932Z,23.73
2018-11-01T00:46:07.330Z,23.57
2018-11-01T00:48:38.952Z,24.03
2018-11-01T00:51:10.340Z,22.00
2018-11-01T00:53:41.676Z,17.20
2018-11-01T00:56:12.832Z,19.67
2018-11-01T00:58:43.833Z,20.43
2018-11-01T01:01:15.702Z,17.07
2018-11-01T01:03:46.934Z,18.20
2018-11-01T01:06:18.484Z,20.83
2018-11-01T01:08:49.807Z,21.93
2018-11-01T01:11:20.744Z,22.50
2018-11-01T01:13:51.768Z,22.07
2018-11-01T01:16:22.944Z,23.03
2018-11-01T01:18:54.191Z,26.57
2018-11-01T01:21:25.317Z,29.47
2018-11-01T01:23:56.518Z,27.07
2018-11-01T01:26:27.703Z,26.10
2018-11-01T01:28:58.933Z,30.57
2018-11-01T01:31:30.037Z,30.83
2018-11-01T01:34:01.073Z,28.67
2018-11-01T01:36:32.277Z,29.50
2018-11-01T01:39:04.055Z,28.80
2018-11-01T01:41:35.235Z,31.70
2018-11-01T01:44:07.244Z,34.13
2018-11-01T01:46:38.448Z,29.93
2018-11-01T01:49:10.399Z,32.47
2018-11-01T01:51:41.395Z,29.03
2018-11-01T01:54:12.683Z,27.27
2018-11-01T01:56:43.971Z,30.27
2018-11-01T01:59:15.468Z,30.30
2018-11-01T02:01:47.123Z,29.53
2018-11-01T02:04:18.330Z,33.57
2018-11-01T02:06:49.323Z,27.30
2018-11-01T02:09:20.563Z,25.57
2018-11-01T02:11:51.825Z,26.33
2018-11-01T02:14:23.106Z,26.17
2018-11-01T02:16:54.593Z,24.43
2018-11-01T02:19:26.183Z,25.63
2018-11-01T02:21:57.287Z,27.03
2018-11-01T02:24:28.460Z,25.27
2018-11-01T02:26:59.654Z,27.10
2018-11-01T02:29:30.726Z,26.00
2018-11-01T02:32:02.103Z,23.20
2018-11-01T02:34:33.063Z,22.47
2018-11-01T02:37:04.551Z,22.83
2018-11-01T02:39:35.778Z,23.37
2018-11-01T02:42:06.827Z,36.27
2018-11-01T02:44:38.303Z,59.80
2018-11-01T02:47:09.381Z,43.53
2018-11-01T02:49:40.576Z,41.03
2018-11-01T02:52:12.354Z,29.00
2018-11-01T02:54:43.363Z,25.90
2018-11-01T02:57:14.874Z,22.33
2018-11-01T02:59:46.137Z,22.87
2018-11-01T03:02:17.147Z,22.60
2018-11-01T03:04:48.144Z,20.50
2018-11-01T03:07:19.415Z,23.67
2018-11-01T03:09:51.064Z,21.60
2018-11-01T03:12:22.791Z,24.73
2018-11-01T03:14:54.967Z,26.00
2018-11-01T03:17:26.249Z,24.90
2018-11-01T03:19:57.485Z,22.93
2018-11-01T03:22:28.945Z,23.23
2018-11-01T03:25:00.325Z,21.47
2018-11-01T03:27:31.617Z,20.40
2018-11-01T03:30:02.912Z,24.67
2018-11-01T03:32:33.989Z,22.00
2018-11-01T03:35:05.159Z,21.07
2018-11-01T03:37:36.375Z,25.00
2018-11-01T03:40:09.299Z,22.60
2018-11-01T03:42:41.637Z,22.63
2018-11-01T03:45:13.762Z,22.30
2018-11-01T03:47:45.251Z,22.10
2018-11-01T03:50:16.518Z,21.37
2018-11-01T03:52:47.477Z,24.20
2018-11-01T03:55:18.694Z,22.40
2018-11-01T03:57:50.152Z,25.07
2018-11-01T04:00:21.445Z,22.60
2018-11-01T04:02:52.623Z,25.30
2018-11-01T04:05:23.636Z,22.67
2018-11-01T04:07:55.122Z,22.70
2018-11-01T04:10:26.209Z,24.17
2018-11-01T04:12:57.202Z,25.30
2018-11-01T04:15:28.442Z,27.60
2018-11-01T04:17:59.390Z,30.83
2018-11-01T04:20:31.378Z,29.93
2018-11-01T04:23:02.590Z,31.53
2018-11-01T04:25:33.767Z,38.00
2018-11-01T04:28:04.953Z,41.60
2018-11-01T04:30:36.134Z,42.10
2018-11-01T04:33:07.356Z,45.20
2018-11-01T04:35:38.897Z,43.43
2018-11-01T04:38:10.098Z,50.50
2018-11-01T04:40:41.865Z,49.17
2018-11-01T04:43:13.146Z,55.67
2018-11-01T04:45:44.269Z,61.67
2018-11-01T04:48:15.505Z,55.27
2018-11-01T04:50:46.715Z,57.60
2018-11-01T04:53:18.037Z,58.67
2018-11-01T04:55:55.971Z,78.80
2018-11-01T04:58:27.107Z,70.57
2018-11-01T05:00:58.342Z,81.30
2018-11-01T05:03:29.593Z,76.50
2018-11-01T05:06:01.001Z,85.27
2018-11-01T05:08:32.276Z,80.43
2018-11-01T05:11:03.467Z,85.17
2018-11-01T05:13:34.658Z,91.17
2018-11-01T05:16:05.663Z,86.57
2018-11-01T05:18:36.858Z,83.63
2018-11-01T05:21:07.895Z,99.47
2018-11-01T05:23:39.352Z,89.93
2018-11-01T05:26:10.625Z,82.10
2018-11-01T05:28:42.083Z,74.10
2018-11-01T05:31:13.407Z,84.10
2018-11-01T05:33:44.590Z,73.33
2018-11-01T05:36:15.781Z,72.90
2018-11-01T05:38:46.951Z,66.00
2018-11-01T05:41:18.203Z,48.43
2018-11-01T05:43:49.195Z,44.43
2018-11-01T05:46:20.349Z,57.13
2018-11-01T05:48:51.541Z,51.23
2018-11-01T05:51:22.578Z,35.10
2018-11-01T05:53:53.720Z,26.10
2018-11-01T05:56:24.723Z,25.83
2018-11-01T05:58:55.903Z,27.77
2018-11-01T06:01:32.015Z,24.80
2018-11-01T06:04:03.583Z,24.53
2018-11-01T06:06:35.486Z,22.37
2018-11-01T06:09:10.539Z,19.93
2018-11-01T06:11:41.560Z,22.07
2018-11-01T06:14:12.495Z,23.77
2018-11-01T06:16:43.563Z,17.67
2018-11-01T06:19:14.696Z,20.73
2018-11-01T06:21:46.007Z,33.97
2018-11-01T06:24:18.075Z,34.33
2018-11-01T06:26:49.246Z,19.43
2018-11-01T06:29:20.235Z,22.40
2018-11-01T06:31:52.146Z,21.90
2018-11-01T06:34:40.569Z,21.03
2018-11-01T06:37:12.058Z,18.30
2018-11-01T06:39:43.307Z,16.30
2018-11-01T06:42:14.692Z,17.63
2018-11-01T06:44:45.679Z,13.23
2018-11-01T06:47:16.720Z,14.63
2018-11-01T06:49:47.671Z,14.80
2018-11-01T06:52:18.915Z,11.87
2018-11-01T06:54:50.358Z,13.90
2018-11-01T06:57:21.690Z,11.13
2018-11-01T06:59:53.370Z,11.27
2018-11-01T07:02:24.671Z,13.40
2018-11-01T07:04:55.599Z,5.90
2018-11-01T07:07:26.815Z,9.37
2018-11-01T07:10:00.904Z,7.73
2018-11-01T07:12:32.120Z,8.33
2018-11-01T07:15:03.350Z,5.93
2018-11-01T07:17:34.746Z,8.53
2018-11-01T07:20:06.765Z,7.77
2018-11-01T07:22:39.003Z,9.23
2018-11-01T07:25:12.231Z,13.53
2018-11-01T07:27:43.435Z,17.10
2018-11-01T07:30:16.075Z,21.90
2018-11-01T07:32:47.560Z,24.67
2018-11-01T07:35:18.371Z,27.23
2018-11-01T07:37:49.908Z,27.30
2018-11-01T07:40:21.190Z,32.93
2018-11-01T07:42:53.363Z,27.03
2018-11-01T07:45:25.203Z,24.37
2018-11-01T07:47:56.489Z,17.73
2018-11-01T07:50:27.487Z,25.07
2018-11-01T07:52:58.993Z,26.63
2018-11-01T07:55:30.264Z,29.67
2018-11-01T07:58:01.457Z,36.93
2018-11-01T08:00:32.648Z,51.20
2018-11-01T08:03:03.865Z,37.83
2018-11-01T08:05:35.057Z,49.50
2018-11-01T08:08:06.590Z,50.53
2018-11-01T08:10:37.812Z,57.40
2018-11-01T08:13:08.719Z,71.77
2018-11-01T08:15:39.799Z,68.20
2018-11-01T08:18:10.817Z,56.93
2018-11-01T08:20:42.173Z,39.27
2018-11-01T08:23:13.379Z,61.63
2018-11-01T08:25:44.563Z,43.37
2018-11-01T08:28:15.583Z,17.37
2018-11-01T08:30:46.755Z,12.60
2018-11-01T08:33:17.947Z,11.43
2018-11-01T08:35:49.131Z,7.53
2018-11-01T08:38:20.475Z,6.53
2018-11-01T08:40:51.751Z,5.70
2018-11-01T08:43:23.743Z,5.73
2018-11-01T08:45:54.904Z,5.47
2018-11-01T08:48:25.878Z,6.00
2018-11-01T08:50:57.384Z,3.30
2018-11-01T08:53:28.964Z,3.93
2018-11-01T08:56:00.102Z,2.83
2018-11-01T08:58:31.557Z,4.77
2018-11-01T09:01:03.875Z,2.30
2018-11-01T09:03:34.996Z,3.40
2018-11-01T09:06:06.701Z,2.37
2018-11-01T09:08:37.860Z,2.53
2018-11-01T09:11:09.183Z,4.00
2018-11-01T09:13:40.358Z,3.70
2018-11-01T09:16:11.560Z,3.37
2018-11-01T09:18:42.741Z,4.13
2018-11-01T09:21:14.242Z,2.63
2018-11-01T09:23:45.340Z,2.30
2018-11-01T09:26:16.581Z,2.93
2018-11-01T09:28:48.201Z,2.83
2018-11-01T09:31:19.589Z,2.80
2018-11-01T09:33:51.177Z,2.30
2018-11-01T09:36:22.471Z,2.03
2018-11-01T09:38:53.730Z,4.00
2018-11-01T09:41:25.351Z,3.97
2018-11-01T09:43:56.984Z,3.37
2018-11-01T09:46:28.164Z,2.93
2018-11-01T09:48:59.328Z,4.27
2018-11-01T09:51:30.648Z,2.30
2018-11-01T09:54:01.612Z,3.57
2018-11-01T09:56:32.919Z,2.60
2018-11-01T09:59:03.879Z,4.10
2018-11-01T10:01:34.983Z,3.73
2018-11-01T10:04:06.029Z,4.90
2018-11-01T10:06:36.978Z,8.87
2018-11-01T10:09:10.259Z,2.47
2018-11-01T10:11:42.348Z,5.30
2018-11-01T10:14:13.687Z,3.40
2018-11-01T10:16:45.165Z,1.93
2018-11-01T10:19:16.139Z,2.60
2018-11-01T10:21:47.576Z,3.10
2018-11-01T10:24:19.117Z,4.80
2018-11-01T10:26:50.269Z,4.23
2018-11-01T10:29:21.436Z,4.00
2018-11-01T10:31:52.641Z,2.93
2018-11-01T10:34:24.432Z,3.90
2018-11-01T10:36:55.951Z,4.77
2018-11-01T10:39:27.533Z,4.10
2018-11-01T10:41:58.565Z,5.37
2018-11-01T10:44:30.365Z,4.27
2018-11-01T10:47:01.563Z,4.33
2018-11-01T10:49:33.046Z,5.83
2018-11-01T10:52:04.427Z,4.10
2018-11-01T10:54:35.754Z,3.03
2018-11-01T10:57:06.942Z,3.17
2018-11-01T10:59:38.138Z,3.73
2018-11-01T11:02:14.159Z,4.40
2018-11-01T11:04:45.453Z,3.90
2018-11-01T11:07:16.829Z,4.10
2018-11-01T11:09:48.347Z,3.23
2018-11-01T11:12:19.586Z,3.43
2018-11-01T11:14:50.869Z,5.63
2018-11-01T11:17:22.163Z,5.73
2018-11-01T11:19:53.446Z,4.20
2018-11-01T11:22:24.711Z,5.53
2018-11-01T11:24:55.722Z,4.80
2018-11-01T11:27:27.164Z,3.47
2018-11-01T11:29:58.664Z,8.50
2018-11-01T11:32:30.486Z,3.97
2018-11-01T11:35:01.663Z,3.63
2018-11-01T11:37:32.986Z,3.97
2018-11-01T11:40:04.456Z,4.87
2018-11-01T11:42:36.430Z,99.60
2018-11-01T11:45:09.430Z,10.50
2018-11-01T11:47:40.631Z,61.13
2018-11-01T11:50:13.975Z,10.60
2018-11-01T11:52:45.715Z,11.00
2018-11-01T11:55:16.918Z,8.07
2018-11-01T11:57:47.915Z,5.80
2018-11-01T12:00:19.083Z,5.50
2018-11-01T12:02:50.339Z,7.83
2018-11-01T12:05:21.541Z,6.10
2018-11-01T12:07:52.676Z,5.87
2018-11-01T12:10:23.876Z,6.30
2018-11-01T12:12:54.859Z,3.27
2018-11-01T12:15:26.076Z,2.23
2018-11-01T12:17:57.719Z,4.20
2018-11-01T12:20:29.031Z,4.17
2018-11-01T12:23:00.282Z,2.00
2018-11-01T12:25:31.599Z,2.87
2018-11-01T12:28:02.838Z,3.30
2018-11-01T12:30:33.975Z,2.83
2018-11-01T12:33:05.005Z,5.23
2018-11-01T12:35:36.179Z,3.13
2018-11-01T12:38:07.639Z,2.30
2018-11-01T12:40:39.244Z,2.40
2018-11-01T12:43:10.532Z,3.00
2018-11-01T12:45:42.027Z,4.47
2018-11-01T12:48:13.354Z,12.53
2018-11-01T12:50:44.558Z,3.97
2018-11-01T12:53:15.900Z,1.20
2018-11-01T12:55:47.093Z,1.30
2018-11-01T12:58:18.320Z,1.60
2018-11-01T13:00:49.470Z,3.20
2018-11-01T13:03:20.665Z,1.90
2018-11-01T13:05:51.844Z,1.77
2018-11-01T13:08:23.055Z,2.03
2018-11-01T13:10:54.111Z,2.03
2018-11-01T13:14:28.203Z,3.13
2018-11-01T13:16:59.351Z,1.70
2018-11-01T13:19:30.566Z,2.10
2018-11-01T13:22:01.712Z,1.10
2018-11-01T13:24:32.755Z,3.03
2018-11-01T13:27:03.945Z,0.80
2018-11-01T13:29:35.083Z,1.63
2018-11-01T13:32:06.371Z,1.83
2018-11-01T13:34:37.587Z,1.40
2018-11-01T13:37:08.888Z,7.50
2018-11-01T13:39:40.130Z,3.27
2018-11-01T13:42:11.063Z,1.47
2018-11-01T13:44:42.256Z,1.20
2018-11-01T13:47:13.505Z,1.40
2018-11-01T13:49:44.880Z,1.70
2018-11-01T13:52:16.045Z,1.63
2018-11-01T13:54:47.308Z,1.20
2018-11-01T13:57:18.907Z,1.47
2018-11-01T13:59:50.002Z,2.70
2018-11-01T14:02:21.182Z,1.53
2018-11-01T14:04:52.366Z,0.87
2018-11-01T14:07:23.580Z,1.00
2018-11-01T14:09:54.556Z,1.23
2018-11-01T14:12:25.776Z,1.50
2018-11-01T14:14:58.286Z,1.10
2018-11-01T14:17:29.380Z,1.67
2018-11-01T14:20:00.511Z,2.27
2018-11-01T14:22:31.701Z,1.13
2018-11-01T14:25:02.935Z,1.20
2018-11-01T14:27:34.084Z,1.20
2018-11-01T14:30:06.196Z,1.87
2018-11-01T14:32:37.464Z,1.97
2018-11-01T14:35:09.173Z,2.23
2018-11-01T14:37:40.922Z,1.90
2018-11-01T14:40:13.218Z,2.03
2018-11-01T14:42:44.707Z,2.83
2018-11-01T14:45:15.982Z,2.67
2018-11-01T14:47:46.971Z,2.67
2018-11-01T14:50:18.176Z,2.20
2018-11-01T14:52:49.646Z,2.10
2018-11-01T14:55:21.178Z,1.40
2018-11-01T14:57:52.591Z,3.37
2018-11-01T15:00:22.723Z,2.30
2018-11-01T15:02:53.907Z,3.63
2018-11-01T15:05:24.927Z,2.33
2018-11-01T15:07:56.177Z,1.63
2018-11-01T15:10:27.835Z,2.40
2018-11-01T15:12:58.932Z,1.77
2018-11-01T15:15:30.301Z,1.80
2018-11-01T15:18:01.284Z,1.50
2018-11-01T15:20:32.463Z,2.33
2018-11-01T15:23:03.657Z,1.80
2018-11-01T15:25:35.283Z,2.10
2018-11-01T15:28:06.318Z,1.90
2018-11-01T15:30:37.442Z,1.97
2018-11-01T15:33:08.641Z,2.43
2018-11-01T15:35:40.710Z,2.00
2018-11-01T15:38:12.583Z,3.13
2018-11-01T15:40:44.464Z,2.80
2018-11-01T15:43:15.603Z,2.03
2018-11-01T15:45:47.442Z,2.70
2018-11-01T15:48:18.838Z,2.90
2018-11-01T15:50:50.258Z,2.80
2018-11-01T15:53:21.302Z,9.40
2018-11-01T15:55:52.564Z,5.10
2018-11-01T15:58:23.788Z,3.00
2018-11-01T16:00:56.934Z,1.70
2018-11-01T16:03:28.298Z,1.90
2018-11-01T16:05:59.619Z,4.70
2018-11-01T16:08:30.810Z,4.30
2018-11-01T16:11:01.835Z,4.23
2018-11-01T16:13:33.047Z,3.30
2018-11-01T16:16:04.269Z,3.93
2018-11-01T16:18:35.867Z,4.93
2018-11-01T16:21:07.042Z,3.93
2018-11-01T16:23:38.366Z,2.70
2018-11-01T16:26:09.741Z,9.90
2018-11-01T16:28:40.967Z,9.67
2018-11-01T16:31:12.136Z,25.37
2018-11-01T16:33:43.642Z,17.53
2018-11-01T16:36:14.765Z,14.27
2018-11-01T16:38:45.910Z,9.50
2018-11-01T16:41:17.095Z,5.87
2018-11-01T16:43:48.832Z,14.13
2018-11-01T16:46:20.472Z,11.83
2018-11-01T16:48:51.651Z,11.37
2018-11-01T16:51:23.141Z,7.73
2018-11-01T16:53:54.939Z,7.63
2018-11-01T16:56:26.238Z,6.87
2018-11-01T16:58:57.415Z,7.63
2018-11-01T17:01:28.600Z,10.67
2018-11-01T17:03:59.619Z,7.57
2018-11-01T17:06:30.778Z,7.57
2018-11-01T17:09:01.977Z,8.47
2018-11-01T17:11:32.976Z,8.87
2018-11-01T17:14:04.536Z,14.87
2018-11-01T17:16:36.170Z,22.87
2018-11-01T17:19:09.019Z,44.03
2018-11-01T17:21:40.293Z,48.37
2018-11-01T17:24:11.507Z,67.43
2018-11-01T17:26:42.487Z,79.43
2018-11-01T17:29:13.710Z,90.47
2018-11-01T17:31:44.677Z,104.07
2018-11-01T17:34:15.747Z,85.27
2018-11-01T17:36:47.098Z,74.03
2018-11-01T17:39:18.051Z,64.17
2018-11-01T17:41:49.287Z,64.83
2018-11-01T17:44:20.749Z,60.97
2018-11-01T17:46:52.025Z,57.27
2018-11-01T17:49:23.209Z,52.00
2018-11-01T17:51:55.512Z,49.67
2018-11-01T17:54:26.812Z,45.43
2018-11-01T17:56:58.656Z,40.70
2018-11-01T17:59:29.952Z,42.30
2018-11-01T18:02:01.170Z,47.33
2018-11-01T18:04:32.169Z,88.27
2018-11-01T18:07:03.394Z,68.00
2018-11-01T18:09:35.000Z,58.43
2018-11-01T18:12:06.489Z,58.73
2018-11-01T18:14:38.024Z,48.83
2018-11-01T18:17:09.580Z,42.60
2018-11-01T18:19:40.859Z,58.23
2018-11-01T18:22:11.851Z,56.73
2018-11-01T18:24:43.053Z,53.50
2018-11-01T18:27:14.244Z,46.67
2018-11-01T18:29:46.107Z,30.70
2018-11-01T18:32:17.477Z,26.53
2018-11-01T18:34:48.609Z,21.37
2018-11-01T18:37:19.858Z,21.97
2018-11-01T18:39:51.174Z,26.33
2018-11-01T18:42:22.487Z,27.30
2018-11-01T18:44:53.564Z,28.77
2018-11-01T18:47:24.787Z,28.20
2018-11-01T18:49:55.939Z,29.80
2018-11-01T18:52:27.123Z,35.47
2018-11-01T18:54:58.136Z,41.40
2018-11-01T18:57:30.043Z,42.13
2018-11-01T19:00:01.305Z,31.73
2018-11-01T19:02:32.903Z,29.53
2018-11-01T19:05:04.112Z,21.30
2018-11-01T19:07:35.365Z,24.63
2018-11-01T19:10:07.254Z,19.20
2018-11-01T19:12:38.947Z,21.57
2018-11-01T19:15:11.622Z,16.60
2018-11-01T19:17:42.982Z,18.33
2018-11-01T19:20:14.797Z,15.80
2018-11-01T19:22:45.959Z,14.77
2018-11-01T19:25:17.160Z,17.80
2018-11-01T19:27:48.550Z,23.13
2018-11-01T19:30:19.747Z,33.10
2018-11-01T19:32:50.871Z,29.37
2018-11-01T19:35:21.967Z,25.93
2018-11-01T19:37:53.347Z,26.47
2018-11-01T19:40:24.606Z,22.80
2018-11-01T19:42:55.708Z,21.33
2018-11-01T19:45:26.910Z,37.23
2018-11-01T19:47:58.823Z,50.87
2018-11-01T19:50:30.102Z,37.33
2018-11-01T19:53:01.459Z,28.70
2018-11-01T19:55:32.445Z,29.70
2018-11-01T19:58:03.997Z,23.97
2018-11-01T20:00:35.026Z,22.77
2018-11-01T20:03:06.271Z,19.77
2018-11-01T20:05:37.427Z,15.93
2018-11-01T20:08:08.587Z,17.10
2018-11-01T20:10:40.485Z,20.80
2018-11-01T20:13:11.774Z,22.10
2018-11-01T20:15:42.959Z,21.70
2018-11-01T20:18:14.592Z,21.77
2018-11-01T20:20:46.051Z,22.80
2018-11-01T20:23:17.423Z,19.53
2018-11-01T20:25:48.620Z,20.03
2018-11-01T20:28:20.168Z,19.83
2018-11-01T20:30:51.516Z,20.27
2018-11-01T20:33:22.517Z,20.27
2018-11-01T20:35:53.691Z,20.90
2018-11-01T20:38:25.006Z,20.77
2018-11-01T20:40:56.255Z,21.27
2018-11-01T20:43:27.262Z,22.30
2018-11-01T20:45:58.251Z,25.60
2018-11-01T20:48:29.435Z,22.57
2018-11-01T20:51:00.758Z,23.57
2018-11-01T20:53:33.372Z,23.13
2018-11-01T20:56:04.612Z,23.27
2018-11-01T20:58:35.692Z,23.00
2018-11-01T21:01:07.014Z,22.50
2018-11-01T21:03:37.969Z,23.83
2018-11-01T21:06:09.166Z,23.60
2018-11-01T21:08:40.359Z,33.67
2018-11-01T21:11:11.564Z,52.00
2018-11-01T21:13:42.700Z,45.47
2018-11-01T21:16:13.780Z,55.83
2018-11-01T21:18:44.993Z,49.63
2018-11-01T21:21:16.338Z,50.20
2018-11-01T21:23:47.503Z,52.10
2018-11-01T21:26:18.691Z,55.20
2018-11-01T21:28:50.036Z,47.33
2018-11-01T21:31:21.279Z,48.43
2018-11-01T21:33:52.283Z,46.90
2018-11-01T21:36:23.471Z,43.60
2018-11-01T21:38:54.651Z,46.30
2018-11-01T21:41:25.903Z,44.43
2018-11-01T21:43:57.257Z,48.90
2018-11-01T21:46:28.830Z,43.57
2018-11-01T21:48:59.993Z,44.73
2018-11-01T21:51:31.190Z,44.57
2018-11-01T21:54:02.697Z,45.63
2018-11-01T21:56:34.279Z,41.73
2018-11-01T21:59:05.635Z,51.90
2018-11-01T22:01:37.240Z,47.17
2018-11-01T22:04:08.346Z,47.57
2018-11-01T22:06:39.558Z,49.17
2018-11-01T22:09:10.761Z,42.10
2018-11-01T22:11:42.019Z,50.13
2018-11-01T22:14:13.090Z,64.63
2018-11-01T22:16:44.095Z,59.97
2018-11-01T22:19:15.408Z,54.30
2018-11-01T22:21:46.620Z,52.57
2018-11-01T22:24:17.704Z,47.73
2018-11-01T22:26:48.872Z,51.73
2018-11-01T22:29:20.082Z,49.00
2018-11-01T22:31:51.164Z,39.67
2018-11-01T22:34:22.744Z,42.30
2018-11-01T22:36:54.335Z,70.67
2018-11-01T22:39:25.605Z,89.80
2018-11-01T22:41:56.843Z,87.33
2018-11-01T22:44:27.996Z,59.43
2018-11-01T22:46:59.121Z,56.07
2018-11-01T22:49:30.229Z,42.57
2018-11-01T22:52:01.198Z,49.00
2018-11-01T22:54:32.460Z,135.57
2018-11-01T22:57:03.785Z,146.70
2018-11-01T22:59:34.963Z,115.77
2018-11-01T23:02:06.125Z,64.37
2018-11-01T23:04:37.145Z,43.33
2018-11-01T23:07:08.423Z,36.73
2018-11-01T23:09:39.568Z,35.70
2018-11-01T23:12:10.739Z,29.83
2018-11-01T23:14:42.743Z,31.70
2018-11-01T23:17:14.389Z,28.50
2018-11-01T23:19:46.022Z,27.33
2018-11-01T23:22:17.526Z,27.87
2018-11-01T23:24:48.656Z,26.07
2018-11-01T23:27:19.656Z,29.33
2018-11-01T23:29:51.351Z,30.17
2018-11-01T23:32:23.049Z,32.93
2018-11-01T23:34:54.018Z,35.53
2018-11-01T23:37:30.171Z,36.00
2018-11-01T23:40:06.088Z,32.53
2018-11-01T23:42:48.746Z,29.03
2018-11-01T23:45:25.111Z,27.40
2018-11-01T23:47:59.903Z,32.40
2018-11-01T23:51:05.688Z,26.20
2018-11-01T23:53:46.244Z,27.70
2018-11-01T23:56:17.690Z,27.47
2018-11-01T23:58:49.110Z,36.47
